createdAt,value
2023-01-29T00:01:44.563Z,100242.16
2023-01-29T00:04:46.186Z,100247.13
2023-01-29T00:07:48.313Z,100224.84
2023-01-29T00:10:49.909Z,100244.13
2023-01-29T00:13:52.685Z,100241.94
2023-01-29T00:16:54.323Z,100239.03
2023-01-29T00:19:55.918Z,100240.78
2023-01-29T00:22:57.575Z,100247.25
2023-01-29T00:26:02.180Z,100238.34
2023-01-29T00:29:05.918Z,100237.63
2023-01-29T00:32:07.662Z,100228.66
2023-01-29T00:35:12.177Z,100226.00
2023-01-29T00:38:14.751Z,100210.06
2023-01-29T00:41:34.901Z,100213.50
2023-01-29T00:44:55.253Z,100212.25
2023-01-29T00:47:56.895Z,100208.69
2023-01-29T00:50:58.537Z,100199.53
2023-01-29T00:54:00.713Z,100205.44
2023-01-29T00:57:03.578Z,100206.25
2023-01-29T01:00:07.617Z,100213.03
2023-01-29T01:03:10.380Z,100212.13
2023-01-29T01:06:12.016Z,100218.13
2023-01-29T01:09:32.309Z,100206.72
2023-01-29T01:12:36.200Z,100216.28
2023-01-29T01:15:39.558Z,100223.78
2023-01-29T01:18:42.060Z,100217.34
2023-01-29T01:21:45.508Z,100228.28
2023-01-29T01:24:47.216Z,100222.50
2023-01-29T01:27:53.369Z,100219.84
2023-01-29T01:30:55.081Z,100232.53
2023-01-29T01:33:56.772Z,100222.50
2023-01-29T01:36:58.478Z,100236.25
2023-01-29T01:40:00.190Z,100234.66
2023-01-29T01:43:02.488Z,100222.88
2023-01-29T01:46:04.400Z,100230.00
2023-01-29T01:49:09.919Z,100225.97
2023-01-29T01:52:16.488Z,100235.41
2023-01-29T01:55:23.751Z,100232.44
2023-01-29T01:58:33.904Z,100236.00
2023-01-29T02:01:36.004Z,100231.16
2023-01-29T02:05:06.580Z,100235.09
2023-01-29T02:08:27.934Z,100230.81
2023-01-29T02:11:30.577Z,100232.31
2023-01-29T02:14:34.625Z,100232.19
2023-01-29T02:17:36.556Z,100229.63
2023-01-29T02:20:41.348Z,100225.16
2023-01-29T02:24:15.633Z,100229.31
2023-01-29T02:27:25.764Z,100231.59
2023-01-29T02:30:40.367Z,100231.38
2023-01-29T02:33:55.905Z,100228.16
2023-01-29T02:37:04.584Z,100235.41
2023-01-29T02:40:38.727Z,100237.72
2023-01-29T02:43:55.721Z,100232.41
2023-01-29T02:47:20.431Z,100234.38
2023-01-29T02:50:46.872Z,100231.13
2023-01-29T02:53:59.894Z,100239.91
2023-01-29T02:57:15.033Z,100228.59
2023-01-29T03:00:27.812Z,100227.66
2023-01-29T03:03:36.638Z,100229.06
2023-01-29T03:06:43.838Z,100222.34
2023-01-29T03:09:51.497Z,100232.28
2023-01-29T03:13:13.451Z,100229.53
2023-01-29T03:16:41.673Z,100243.03
2023-01-29T03:19:46.863Z,100238.19
2023-01-29T03:23:04.978Z,100237.94
2023-01-29T03:26:25.440Z,100234.69
2023-01-29T03:29:50.261Z,100239.06
2023-01-29T03:32:54.124Z,100233.31
2023-01-29T03:36:02.559Z,100242.88
2023-01-29T03:39:09.518Z,100242.31
2023-01-29T03:42:11.329Z,100228.84
2023-01-29T03:45:50.139Z,100235.38
2023-01-29T03:48:59.452Z,100236.44
2023-01-29T03:52:13.998Z,100231.78
2023-01-29T03:55:20.466Z,100236.31
2023-01-29T03:58:35.909Z,100238.38
2023-01-29T04:01:47.531Z,100233.88
2023-01-29T04:04:53.164Z,100231.91
2023-01-29T04:08:05.071Z,100235.72
2023-01-29T04:11:14.329Z,100215.06
2023-01-29T04:14:17.511Z,100228.81
2023-01-29T04:17:33.722Z,100239.75
2023-01-29T04:20:43.527Z,100235.50
2023-01-29T04:23:45.244Z,100227.31
2023-01-29T04:27:20.906Z,100226.94
2023-01-29T04:30:34.836Z,100226.69
2023-01-29T04:33:48.020Z,100235.00
2023-01-29T04:37:20.765Z,100232.34
2023-01-29T04:40:47.523Z,100228.22
2023-01-29T04:44:05.015Z,100237.44
2023-01-29T04:47:39.743Z,100233.97
2023-01-29T04:51:01.919Z,100233.75
2023-01-29T04:54:03.499Z,100228.22
2023-01-29T04:57:27.798Z,100226.38
2023-01-29T05:00:43.112Z,100221.75
2023-01-29T05:03:49.969Z,100211.44
2023-01-29T05:06:52.568Z,100216.06
2023-01-29T05:09:55.382Z,100218.16
2023-01-29T05:13:02.079Z,100226.88
2023-01-29T05:16:14.649Z,100213.13
2023-01-29T05:19:17.268Z,100209.31
2023-01-29T05:22:22.698Z,100225.59
2023-01-29T05:25:30.137Z,100228.81
2023-01-29T05:28:31.984Z,100232.81
2023-01-29T05:31:33.735Z,100245.06
2023-01-29T05:34:35.451Z,100241.81
2023-01-29T05:37:37.029Z,100244.38
2023-01-29T05:40:38.926Z,100239.31
2023-01-29T05:43:40.519Z,100247.59
2023-01-29T05:46:44.086Z,100234.66
2023-01-29T05:49:45.743Z,100207.09
2023-01-29T05:52:47.368Z,100198.22
2023-01-29T05:55:49.546Z,100194.28
2023-01-29T05:58:51.356Z,100195.34
2023-01-29T06:01:52.973Z,100194.19
2023-01-29T06:04:54.581Z,100209.16
2023-01-29T06:07:56.308Z,100216.56
2023-01-29T06:10:57.921Z,100207.28
2023-01-29T06:13:59.567Z,100206.63
2023-01-29T06:17:01.237Z,100224.97
2023-01-29T06:20:02.848Z,100210.59
2023-01-29T06:23:04.490Z,100215.03
2023-01-29T06:26:08.695Z,100229.75
2023-01-29T06:29:10.422Z,100237.34
2023-01-29T06:32:12.093Z,100235.94
2023-01-29T06:35:13.788Z,100245.28
2023-01-29T06:38:15.430Z,100244.72
2023-01-29T06:41:18.625Z,100254.28
2023-01-29T06:44:20.343Z,100264.66
2023-01-29T06:47:22.416Z,100261.81
2023-01-29T06:50:24.036Z,100265.00
2023-01-29T06:53:25.891Z,100253.63
2023-01-29T06:56:27.563Z,100250.47
2023-01-29T06:59:29.265Z,100247.22
2023-01-29T07:02:30.935Z,100256.28
2023-01-29T07:05:32.652Z,100249.34
2023-01-29T07:08:38.848Z,100259.94
2023-01-29T07:11:40.724Z,100251.75
2023-01-29T07:14:42.299Z,100258.03
2023-01-29T07:17:43.884Z,100249.97
2023-01-29T07:20:45.509Z,100236.66
2023-01-29T07:23:47.227Z,100241.25
2023-01-29T07:26:48.787Z,100243.69
2023-01-29T07:29:50.554Z,100240.03
2023-01-29T07:32:52.169Z,100243.25
2023-01-29T07:35:54.053Z,100247.31
2023-01-29T07:38:55.964Z,100248.47
2023-01-29T07:41:57.728Z,100261.63
2023-01-29T07:45:01.971Z,100268.78
2023-01-29T07:48:05.190Z,100274.31
2023-01-29T07:51:07.192Z,100268.44
2023-01-29T07:54:08.823Z,100284.97
2023-01-29T07:57:10.503Z,100296.91
2023-01-29T08:00:14.669Z,100290.78
2023-01-29T08:03:20.022Z,100299.06
2023-01-29T08:06:21.675Z,100288.13
2023-01-29T08:09:23.334Z,100300.72
2023-01-29T08:12:24.964Z,100296.41
2023-01-29T08:15:27.245Z,100306.81
2023-01-29T08:18:28.927Z,100305.22
2023-01-29T08:21:30.551Z,100312.03
2023-01-29T08:24:47.432Z,100323.97
2023-01-29T08:27:54.051Z,100333.84
2023-01-29T08:30:55.743Z,100338.44
2023-01-29T08:33:58.853Z,100345.44
2023-01-29T08:37:00.400Z,100336.31
2023-01-29T08:40:05.065Z,100332.66
2023-01-29T08:43:09.147Z,100330.22
2023-01-29T08:46:11.112Z,100333.66
2023-01-29T08:49:12.857Z,100334.97
2023-01-29T08:52:14.430Z,100333.94
2023-01-29T08:55:16.382Z,100341.34
2023-01-29T08:58:18.538Z,100345.28
2023-01-29T09:01:20.240Z,100342.72
2023-01-29T09:04:22.384Z,100341.72
2023-01-29T09:07:24.103Z,100339.84
2023-01-29T09:10:26.203Z,100336.41
2023-01-29T09:13:27.831Z,100335.22
2023-01-29T09:16:29.413Z,100336.75
2023-01-29T09:19:31.054Z,100345.44
2023-01-29T09:22:32.639Z,100332.84
2023-01-29T09:25:34.577Z,100327.53
2023-01-29T09:28:36.163Z,100323.16
2023-01-29T09:31:37.927Z,100301.53
2023-01-29T09:34:40.190Z,100326.59
2023-01-29T09:37:41.875Z,100324.16
2023-01-29T09:41:06.191Z,100330.19
2023-01-29T09:44:18.026Z,100334.94
2023-01-29T09:47:21.298Z,100343.50
2023-01-29T09:50:43.147Z,100350.75
2023-01-29T09:53:58.184Z,100358.88
2023-01-29T09:57:00.722Z,100347.16
2023-01-29T10:00:05.453Z,100335.53
2023-01-29T10:03:41.811Z,100325.53
2023-01-29T10:06:43.395Z,100324.13
2023-01-29T10:10:03.829Z,100306.06
2023-01-29T10:13:14.548Z,100298.28
2023-01-29T10:16:35.373Z,100293.09
2023-01-29T10:20:10.257Z,100284.59
2023-01-29T10:23:29.918Z,100274.47
2023-01-29T10:26:34.234Z,100283.28
2023-01-29T10:29:36.134Z,100277.19
2023-01-29T10:32:38.276Z,100269.47
2023-01-29T10:35:43.777Z,100280.34
2023-01-29T10:38:51.059Z,100279.53
2023-01-29T10:42:19.717Z,100274.59
2023-01-29T10:45:46.049Z,100284.06
2023-01-29T10:49:00.571Z,100277.78
2023-01-29T10:52:33.112Z,100276.03
2023-01-29T10:55:54.628Z,100261.66
2023-01-29T10:59:09.225Z,100266.97
2023-01-29T11:02:19.805Z,100271.25
2023-01-29T11:05:35.505Z,100271.66
2023-01-29T11:09:00.120Z,100272.41
2023-01-29T11:12:16.927Z,100264.81
2023-01-29T11:15:24.653Z,100268.75
2023-01-29T11:18:26.289Z,100269.09
2023-01-29T11:21:29.742Z,100268.59
2023-01-29T11:24:31.409Z,100266.50
2023-01-29T11:27:35.486Z,100264.31
2023-01-29T11:30:41.809Z,100274.97
2023-01-29T11:33:44.776Z,100269.53
2023-01-29T11:36:46.991Z,100273.06
2023-01-29T11:39:48.666Z,100267.63
2023-01-29T11:42:52.923Z,100254.31
2023-01-29T11:45:58.668Z,100230.19
2023-01-29T11:49:14.034Z,100232.31
2023-01-29T11:52:23.883Z,100239.22
2023-01-29T11:55:44.358Z,100243.97
2023-01-29T11:58:55.394Z,100250.06
2023-01-29T12:02:06.842Z,100244.72
2023-01-29T12:05:17.855Z,100231.38
2023-01-29T12:08:21.651Z,100240.31
2023-01-29T12:11:30.737Z,100235.03
2023-01-29T12:14:34.315Z,100232.19
2023-01-29T12:17:39.550Z,100217.31
2023-01-29T12:20:56.134Z,100206.53
2023-01-29T12:24:36.695Z,100192.97
2023-01-29T12:28:04.169Z,100179.38
2023-01-29T12:31:19.344Z,100173.53
2023-01-29T12:34:27.375Z,100174.63
2023-01-29T12:37:56.673Z,100168.81
2023-01-29T12:41:01.181Z,100157.53
2023-01-29T12:44:10.886Z,100155.97
2023-01-29T12:47:23.309Z,100145.66
2023-01-29T12:50:32.500Z,100134.94
2023-01-29T12:54:04.708Z,100136.69
2023-01-29T12:57:20.648Z,100114.47
2023-01-29T13:00:25.970Z,100122.56
2023-01-29T13:03:45.523Z,100113.88
2023-01-29T13:06:54.271Z,100107.44
2023-01-29T13:10:10.631Z,100110.19
2023-01-29T13:13:22.103Z,100097.38
2023-01-29T13:16:28.024Z,100112.91
2023-01-29T13:19:35.137Z,100110.81
2023-01-29T13:22:40.527Z,100104.91
2023-01-29T13:25:43.137Z,100106.53
2023-01-29T13:28:45.255Z,100104.06
2023-01-29T13:31:49.717Z,100095.41
2023-01-29T13:34:55.427Z,100103.91
2023-01-29T13:37:57.119Z,100102.81
2023-01-29T13:41:08.749Z,100098.00
2023-01-29T13:44:29.610Z,100099.03
2023-01-29T13:47:37.940Z,100103.94
2023-01-29T13:50:42.906Z,100092.00
2023-01-29T13:53:55.259Z,100103.16
2023-01-29T13:57:01.637Z,100101.34
2023-01-29T14:00:31.033Z,100113.53
2023-01-29T14:04:02.205Z,100116.09
2023-01-29T14:07:43.559Z,100122.84
2023-01-29T14:10:45.110Z,100125.50
2023-01-29T14:13:49.302Z,100133.88
2023-01-29T14:16:50.968Z,100117.03
2023-01-29T14:20:02.190Z,100116.34
2023-01-29T14:23:05.002Z,100113.66
2023-01-29T14:26:18.417Z,100107.47
2023-01-29T14:29:39.738Z,100115.88
2023-01-29T14:32:41.549Z,100099.84
2023-01-29T14:35:51.112Z,100110.53
2023-01-29T14:38:54.434Z,100126.97
2023-01-29T14:41:57.499Z,100126.03
2023-01-29T14:45:11.504Z,100132.94
2023-01-29T14:48:13.111Z,100127.22
2023-01-29T14:51:17.875Z,100132.06
2023-01-29T14:54:30.228Z,100129.06
2023-01-29T14:57:32.248Z,100125.72
2023-01-29T15:00:39.629Z,100126.22
2023-01-29T15:03:49.797Z,100120.91
2023-01-29T15:07:11.619Z,100118.03
2023-01-29T15:10:23.380Z,100122.16
2023-01-29T15:13:36.249Z,100123.38
2023-01-29T15:16:51.632Z,100120.22
2023-01-29T15:19:53.291Z,100110.53
2023-01-29T15:22:54.981Z,100115.75
2023-01-29T15:26:01.662Z,100100.94
2023-01-29T15:29:05.877Z,100112.03
2023-01-29T15:32:08.229Z,100109.88
2023-01-29T15:35:37.124Z,100115.38
2023-01-29T15:38:38.775Z,100093.38
2023-01-29T15:41:40.425Z,100101.13
2023-01-29T15:44:46.596Z,100102.50
2023-01-29T15:47:48.773Z,100108.94
2023-01-29T15:50:54.667Z,100108.22
2023-01-29T15:54:04.883Z,100104.22
2023-01-29T15:57:06.795Z,100103.16
2023-01-29T16:00:22.227Z,100109.41
2023-01-29T16:03:26.402Z,100090.97
2023-01-29T16:06:38.021Z,100109.28
2023-01-29T16:09:39.943Z,100106.16
2023-01-29T16:12:41.828Z,100109.91
2023-01-29T16:16:06.380Z,100106.25
2023-01-29T16:19:22.020Z,100131.00
2023-01-29T16:22:25.146Z,100121.41
2023-01-29T16:25:30.132Z,100119.50
2023-01-29T16:28:31.932Z,100121.88
2023-01-29T16:31:36.145Z,100129.28
2023-01-29T16:34:44.153Z,100123.75
2023-01-29T16:37:50.868Z,100117.75
2023-01-29T16:41:11.443Z,100129.56
2023-01-29T16:44:15.753Z,100128.06
2023-01-29T16:47:28.241Z,100130.84
2023-01-29T16:50:46.166Z,100130.41
2023-01-29T16:54:02.240Z,100130.41
2023-01-29T16:57:03.845Z,100115.72
2023-01-29T17:00:29.459Z,100122.31
2023-01-29T17:03:33.782Z,100128.53
2023-01-29T17:06:36.236Z,100134.66
2023-01-29T17:09:38.305Z,100141.69
2023-01-29T17:12:39.892Z,100141.25
2023-01-29T17:15:43.041Z,100132.38
2023-01-29T17:18:44.691Z,100122.75
2023-01-29T17:21:47.355Z,100138.81
2023-01-29T17:24:51.499Z,100129.22
2023-01-29T17:27:53.345Z,100128.31
2023-01-29T17:31:05.818Z,100126.34
2023-01-29T17:34:14.135Z,100123.91
2023-01-29T17:37:16.366Z,100116.44
2023-01-29T17:40:41.138Z,100121.84
2023-01-29T17:43:44.205Z,100113.06
2023-01-29T17:46:47.359Z,100126.09
2023-01-29T17:49:49.182Z,100100.84
2023-01-29T17:52:50.880Z,100113.06
2023-01-29T17:55:52.436Z,100117.69
2023-01-29T17:58:54.028Z,100126.00
2023-01-29T18:01:55.868Z,100114.94
2023-01-29T18:04:57.451Z,100131.19
2023-01-29T18:07:59.097Z,100115.16
2023-01-29T18:11:01.189Z,100123.13
2023-01-29T18:14:14.184Z,100121.38
2023-01-29T18:17:22.199Z,100129.72
2023-01-29T18:20:25.753Z,100141.00
2023-01-29T18:23:29.505Z,100128.06
2023-01-29T18:26:31.164Z,100130.16
2023-01-29T18:29:32.809Z,100116.97
2023-01-29T18:32:34.640Z,100128.06
2023-01-29T18:35:36.278Z,100118.50
2023-01-29T18:38:37.833Z,100130.25
2023-01-29T18:41:39.446Z,100128.44
2023-01-29T18:44:41.013Z,100123.13
2023-01-29T18:47:42.606Z,100124.72
2023-01-29T18:50:44.228Z,100115.25
2023-01-29T18:53:49.980Z,100123.00
2023-01-29T18:57:12.962Z,100123.13
2023-01-29T19:00:13.877Z,100121.25
2023-01-29T19:03:15.552Z,100126.00
2023-01-29T19:06:17.170Z,100125.78
2023-01-29T19:09:18.842Z,100134.66
2023-01-29T19:12:22.343Z,100126.09
2023-01-29T19:15:24.005Z,100121.47
2023-01-29T19:18:26.480Z,100132.38
2023-01-29T19:21:28.461Z,100131.41
2023-01-29T19:24:30.059Z,100139.97
2023-01-29T19:27:31.671Z,100130.47
2023-01-29T19:30:33.730Z,100137.50
2023-01-29T19:33:35.789Z,100140.25
2023-01-29T19:36:37.493Z,100135.25
2023-01-29T19:39:39.088Z,100133.75
2023-01-29T19:42:41.329Z,100139.50
2023-01-29T19:45:49.467Z,100129.72
2023-01-29T19:48:54.555Z,100132.34
2023-01-29T19:51:58.814Z,100126.47
2023-01-29T19:55:01.757Z,100134.41
2023-01-29T19:58:04.716Z,100133.59
2023-01-29T20:01:13.755Z,100142.84
2023-01-29T20:04:15.416Z,100151.47
2023-01-29T20:07:17.148Z,100131.16
2023-01-29T20:10:19.148Z,100133.00
2023-01-29T20:13:20.976Z,100133.72
2023-01-29T20:16:22.810Z,100134.50
2023-01-29T20:19:24.508Z,100134.72
2023-01-29T20:22:26.823Z,100134.50
2023-01-29T20:25:29.227Z,100148.84
2023-01-29T20:28:30.841Z,100145.84
2023-01-29T20:31:32.461Z,100119.53
2023-01-29T20:34:34.501Z,100136.94
2023-01-29T20:37:36.107Z,100136.59
2023-01-29T20:40:37.793Z,100131.97
2023-01-29T20:43:39.682Z,100131.31
2023-01-29T20:46:42.465Z,100124.25
2023-01-29T20:49:44.147Z,100118.50
2023-01-29T20:52:46.022Z,100120.00
2023-01-29T20:55:47.771Z,100115.63
2023-01-29T20:58:49.577Z,100122.06
2023-01-29T21:01:51.355Z,100114.69
2023-01-29T21:04:53.035Z,100104.31
2023-01-29T21:07:55.554Z,100110.16
2023-01-29T21:10:57.222Z,100113.97
2023-01-29T21:13:58.918Z,100114.09
2023-01-29T21:17:01.260Z,100103.00
2023-01-29T21:20:04.311Z,100115.69
2023-01-29T21:23:07.180Z,100111.88
2023-01-29T21:26:09.138Z,100113.25
2023-01-29T21:29:12.138Z,100123.16
2023-01-29T21:32:13.909Z,100105.97
2023-01-29T21:35:15.809Z,100110.72
2023-01-29T21:38:17.432Z,100100.78
2023-01-29T21:41:19.012Z,100107.56
2023-01-29T21:44:20.735Z,100110.03
2023-01-29T21:47:22.421Z,100105.53
2023-01-29T21:50:24.101Z,100099.91
2023-01-29T21:53:25.964Z,100100.69
2023-01-29T21:56:27.594Z,100099.97
2023-01-29T21:59:29.355Z,100093.19
2023-01-29T22:02:32.150Z,100091.91
2023-01-29T22:05:34.403Z,100100.19
2023-01-29T22:08:36.017Z,100087.03
2023-01-29T22:11:37.755Z,100101.09
2023-01-29T22:14:39.453Z,100106.38
2023-01-29T22:17:41.683Z,100105.13
2023-01-29T22:20:43.352Z,100116.88
2023-01-29T22:23:49.381Z,100109.00
2023-01-29T22:26:51.360Z,100116.06
2023-01-29T22:29:52.946Z,100106.69
2023-01-29T22:32:54.560Z,100100.78
2023-01-29T22:35:56.797Z,100105.53
2023-01-29T22:38:58.519Z,100089.94
2023-01-29T22:42:00.244Z,100090.97
2023-01-29T22:45:01.968Z,100098.31
2023-01-29T22:48:03.758Z,100096.97
2023-01-29T22:51:11.776Z,100079.00
2023-01-29T22:54:15.463Z,100076.47
2023-01-29T22:57:17.136Z,100068.16
2023-01-29T23:00:19.731Z,100060.88
2023-01-29T23:03:21.536Z,100045.19
2023-01-29T23:06:23.469Z,100049.25
2023-01-29T23:09:25.039Z,100043.25
2023-01-29T23:12:26.693Z,100031.56
2023-01-29T23:15:28.374Z,100029.59
2023-01-29T23:18:29.936Z,100023.28
2023-01-29T23:21:31.545Z,100004.09
2023-01-29T23:24:33.239Z,99988.47
2023-01-29T23:27:34.872Z,100004.53
2023-01-29T23:30:36.503Z,99994.19
2023-01-29T23:33:38.507Z,99996.72
2023-01-29T23:36:40.139Z,100008.00
2023-01-29T23:39:41.795Z,99993.16
2023-01-29T23:42:43.393Z,99980.75
2023-01-29T23:45:45.016Z,99974.19
2023-01-29T23:48:46.666Z,99966.38
2023-01-29T23:51:49.781Z,99957.91
2023-01-29T23:54:51.396Z,99956.50
2023-01-29T23:57:53.783Z,99953.97
